createdAt,value
2022-12-04T00:00:05.898Z,-0.13
2022-12-04T00:01:05.884Z,-0.14
2022-12-04T00:02:05.862Z,-0.13
2022-12-04T00:03:05.948Z,-0.11
2022-12-04T00:04:05.836Z,-0.11
2022-12-04T00:05:05.920Z,-0.13
2022-12-04T00:06:05.820Z,-0.13
2022-12-04T00:07:05.859Z,-0.13
2022-12-04T00:08:05.829Z,-0.14
2022-12-04T00:09:05.788Z,-0.16
2022-12-04T00:10:05.774Z,-0.13
2022-12-04T00:11:05.792Z,-0.13
2022-12-04T00:12:05.776Z,-0.13
2022-12-04T00:13:05.740Z,-0.11
2022-12-04T00:14:07.501Z,-0.09
2022-12-04T00:16:05.751Z,-0.07
2022-12-04T00:17:05.743Z,-0.03
2022-12-04T00:18:05.694Z,-0.01
2022-12-04T00:19:05.689Z,0.02
2022-12-04T00:20:05.673Z,0.02
2022-12-04T00:21:05.688Z,-0.01
2022-12-04T00:22:05.654Z,0.00
2022-12-04T00:23:05.644Z,0.00
2022-12-04T00:24:05.633Z,0.00
2022-12-04T00:25:05.635Z,-0.01
2022-12-04T00:26:05.635Z,-0.03
2022-12-04T00:27:05.635Z,-0.04
2022-12-04T00:28:05.606Z,-0.03
2022-12-04T00:29:05.602Z,-0.04
2022-12-04T00:30:05.570Z,-0.07
2022-12-04T00:31:05.625Z,-0.09
2022-12-04T00:32:05.733Z,-0.07
2022-12-04T00:33:05.546Z,-0.10
2022-12-04T00:34:08.122Z,-0.11
2022-12-04T00:35:05.539Z,-0.11
2022-12-04T00:36:05.509Z,-0.11
2022-12-04T00:37:05.540Z,-0.11
2022-12-04T00:38:05.492Z,-0.14
2022-12-04T00:39:05.528Z,-0.11
2022-12-04T00:40:05.476Z,-0.11
2022-12-04T00:41:05.468Z,-0.13
2022-12-04T00:42:05.464Z,-0.17
2022-12-04T00:43:05.481Z,-0.14
2022-12-04T00:44:05.424Z,-0.14
2022-12-04T00:45:05.445Z,-0.14
2022-12-04T00:46:05.479Z,-0.13
2022-12-04T00:47:05.417Z,-0.13
2022-12-04T00:48:05.407Z,-0.14
2022-12-04T00:49:05.404Z,-0.16
2022-12-04T00:50:05.372Z,-0.13
2022-12-04T00:51:05.389Z,-0.11
2022-12-04T00:52:05.383Z,-0.13
2022-12-04T00:53:05.384Z,-0.11
2022-12-04T00:54:05.350Z,-0.13
2022-12-04T00:55:05.351Z,-0.14
2022-12-04T00:56:05.315Z,-0.13
2022-12-04T00:57:05.309Z,-0.10
2022-12-04T00:58:05.306Z,-0.13
2022-12-04T00:59:05.461Z,-0.10
2022-12-04T01:00:05.294Z,-0.11
2022-12-04T01:01:05.337Z,-0.07
2022-12-04T01:02:05.252Z,-0.10
2022-12-04T01:03:05.329Z,-0.09
2022-12-04T01:04:05.241Z,-0.11
2022-12-04T01:05:05.232Z,-0.11
2022-12-04T01:06:05.236Z,-0.14
2022-12-04T01:07:05.547Z,-0.13
2022-12-04T01:08:05.317Z,-0.11
2022-12-04T01:09:05.317Z,-0.09
2022-12-04T01:10:05.171Z,-0.07
2022-12-04T01:11:05.169Z,-0.03
2022-12-04T01:12:05.181Z,-0.01
2022-12-04T01:13:05.153Z,0.00
2022-12-04T01:14:05.137Z,0.00
2022-12-04T01:15:05.132Z,-0.01
2022-12-04T01:16:05.158Z,-0.06
2022-12-04T01:17:05.120Z,-0.06
2022-12-04T01:18:05.100Z,-0.09
2022-12-04T01:19:05.091Z,-0.07
2022-12-04T01:20:05.073Z,-0.07
2022-12-04T01:21:05.060Z,-0.07
2022-12-04T01:22:05.073Z,-0.09
2022-12-04T01:23:05.060Z,-0.07
2022-12-04T01:24:05.043Z,-0.09
2022-12-04T01:25:05.041Z,-0.09
2022-12-04T01:26:05.012Z,-0.09
2022-12-04T01:27:05.023Z,-0.10
2022-12-04T01:28:05.000Z,-0.10
2022-12-04T01:29:04.995Z,-0.11
2022-12-04T01:30:04.978Z,-0.07
2022-12-04T01:31:04.959Z,-0.07
2022-12-04T01:32:05.065Z,-0.07
2022-12-04T01:33:04.955Z,-0.10
2022-12-04T01:34:04.944Z,-0.10
2022-12-04T01:35:04.922Z,-0.09
2022-12-04T01:36:04.916Z,-0.09
2022-12-04T01:37:04.903Z,-0.10
2022-12-04T01:38:04.929Z,-0.09
2022-12-04T01:39:04.873Z,-0.10
2022-12-04T01:40:04.906Z,-0.07
2022-12-04T01:41:04.865Z,-0.07
2022-12-04T01:42:04.868Z,-0.07
2022-12-04T01:43:04.847Z,-0.06
2022-12-04T01:44:04.871Z,-0.04
2022-12-04T01:45:04.825Z,-0.04
2022-12-04T01:46:04.900Z,-0.06
2022-12-04T01:47:04.808Z,-0.09
2022-12-04T01:48:04.839Z,-0.10
2022-12-04T01:49:04.791Z,-0.10
2022-12-04T01:50:04.786Z,-0.07
2022-12-04T01:51:04.763Z,-0.13
2022-12-04T01:52:04.776Z,-0.11
2022-12-04T01:53:04.776Z,-0.13
2022-12-04T01:54:04.733Z,-0.11
2022-12-04T01:55:04.722Z,-0.11
2022-12-04T01:56:04.848Z,-0.14
2022-12-04T01:57:04.733Z,-0.14
2022-12-04T01:58:04.699Z,-0.10
2022-12-04T01:59:04.699Z,-0.09
2022-12-04T02:00:04.680Z,-0.09
2022-12-04T02:01:08.500Z,-0.01
2022-12-04T02:02:04.777Z,-0.01
2022-12-04T02:03:04.759Z,0.02
2022-12-04T02:04:04.654Z,0.02
2022-12-04T02:05:04.619Z,0.00
2022-12-04T02:06:04.622Z,-0.01
2022-12-04T02:07:04.602Z,-0.03
2022-12-04T02:08:04.674Z,-0.04
2022-12-04T02:09:04.603Z,-0.07
2022-12-04T02:10:04.620Z,-0.09
2022-12-04T02:11:04.550Z,-0.11
2022-12-04T02:12:04.585Z,-0.09
2022-12-04T02:13:04.541Z,-0.09
2022-12-04T02:14:04.575Z,-0.10
2022-12-04T02:15:04.544Z,-0.09
2022-12-04T02:16:04.651Z,-0.11
2022-12-04T02:17:04.589Z,-0.13
2022-12-04T02:18:04.491Z,-0.11
2022-12-04T02:19:04.479Z,-0.16
2022-12-04T02:20:04.476Z,-0.13
2022-12-04T02:21:04.481Z,-0.17
2022-12-04T02:22:04.459Z,-0.16
2022-12-04T02:23:04.439Z,-0.14
2022-12-04T02:24:04.450Z,-0.11
2022-12-04T02:25:04.429Z,-0.13
2022-12-04T02:26:04.413Z,-0.14
2022-12-04T02:27:04.430Z,-0.17
2022-12-04T02:28:04.421Z,-0.16
2022-12-04T02:29:04.386Z,-0.17
2022-12-04T02:30:04.381Z,-0.17
2022-12-04T02:31:04.436Z,-0.17
2022-12-04T02:32:04.363Z,-0.16
2022-12-04T02:33:04.373Z,-0.17
2022-12-04T02:34:04.338Z,-0.17
2022-12-04T02:35:04.329Z,-0.14
2022-12-04T02:36:04.318Z,-0.16
2022-12-04T02:37:04.308Z,-0.14
2022-12-04T02:38:04.290Z,-0.14
2022-12-04T02:39:04.303Z,-0.13
2022-12-04T02:40:04.283Z,-0.13
2022-12-04T02:41:04.266Z,-0.09
2022-12-04T02:42:04.263Z,-0.07
2022-12-04T02:43:04.241Z,-0.06
2022-12-04T02:44:04.680Z,-0.03
2022-12-04T02:45:04.223Z,0.00
2022-12-04T02:46:04.343Z,0.04
2022-12-04T02:47:04.194Z,0.00
2022-12-04T02:48:04.201Z,-0.04
2022-12-04T02:49:04.185Z,-0.06
2022-12-04T02:50:04.213Z,-0.03
2022-12-04T02:51:04.169Z,-0.01
2022-12-04T02:52:04.156Z,-0.03
2022-12-04T02:53:04.147Z,-0.01
2022-12-04T02:54:04.151Z,-0.03
2022-12-04T02:55:08.366Z,0.00
2022-12-04T02:56:04.151Z,0.02
2022-12-04T02:57:04.108Z,0.05
2022-12-04T02:58:04.100Z,0.07
2022-12-04T02:59:04.080Z,0.09
2022-12-04T03:00:04.078Z,0.11
2022-12-04T03:01:04.531Z,0.11
2022-12-04T03:02:04.155Z,0.11
2022-12-04T03:03:04.042Z,0.12
2022-12-04T03:04:04.056Z,0.14
2022-12-04T03:05:04.025Z,0.15
2022-12-04T03:06:04.019Z,0.12
2022-12-04T03:07:03.995Z,0.12
2022-12-04T03:08:04.062Z,0.11
2022-12-04T03:09:03.987Z,0.11
2022-12-04T03:10:03.987Z,0.11
2022-12-04T03:11:03.973Z,0.08
2022-12-04T03:12:03.960Z,0.07
2022-12-04T03:13:03.962Z,0.08
2022-12-04T03:14:03.940Z,0.05
2022-12-04T03:15:03.932Z,0.04
2022-12-04T03:16:03.941Z,0.02
2022-12-04T03:17:04.005Z,0.02
2022-12-04T03:18:03.939Z,0.04
2022-12-04T03:19:03.871Z,-0.01
2022-12-04T03:20:03.888Z,-0.01
2022-12-04T03:21:03.882Z,-0.01
2022-12-04T03:22:03.870Z,0.02
2022-12-04T03:23:03.844Z,0.02
2022-12-04T03:24:03.848Z,-0.01
2022-12-04T03:25:03.823Z,0.00
2022-12-04T03:26:03.842Z,0.00
2022-12-04T03:27:03.801Z,0.02
2022-12-04T03:28:03.844Z,0.00
2022-12-04T03:29:03.783Z,-0.01
2022-12-04T03:30:03.797Z,0.04
2022-12-04T03:31:03.861Z,0.00
2022-12-04T03:32:03.763Z,0.02
2022-12-04T03:33:03.771Z,0.04
2022-12-04T03:34:03.742Z,0.04
2022-12-04T03:35:03.721Z,0.04
2022-12-04T03:36:03.738Z,0.04
2022-12-04T03:37:03.718Z,0.05
2022-12-04T03:38:03.703Z,0.04
2022-12-04T03:39:03.676Z,0.02
2022-12-04T03:40:03.721Z,0.00
2022-12-04T03:41:03.674Z,0.02
2022-12-04T03:42:03.684Z,0.02
2022-12-04T03:43:03.641Z,0.02
2022-12-04T03:44:03.638Z,0.00
2022-12-04T03:45:03.621Z,0.04
2022-12-04T03:46:03.931Z,0.02
2022-12-04T03:47:03.597Z,-0.01
2022-12-04T03:48:03.606Z,-0.01
2022-12-04T03:49:03.583Z,0.02
2022-12-04T03:50:03.615Z,-0.01
2022-12-04T03:51:03.559Z,0.00
2022-12-04T03:52:03.587Z,0.00
2022-12-04T03:53:03.543Z,-0.03
2022-12-04T03:54:03.530Z,0.02
2022-12-04T03:55:03.515Z,0.00
2022-12-04T03:56:03.536Z,0.02
2022-12-04T03:57:03.512Z,0.05
2022-12-04T03:58:03.521Z,0.07
2022-12-04T03:59:03.490Z,0.11
2022-12-04T04:00:03.891Z,0.12
2022-12-04T04:01:03.555Z,0.22
2022-12-04T04:02:03.687Z,0.23
2022-12-04T04:03:03.533Z,0.27
2022-12-04T04:04:03.449Z,0.25
2022-12-04T04:05:03.424Z,0.26
2022-12-04T04:06:03.453Z,0.26
2022-12-04T04:07:03.402Z,0.26
2022-12-04T04:08:03.495Z,0.25
2022-12-04T04:09:03.455Z,0.25
2022-12-04T04:10:03.389Z,0.22
2022-12-04T04:11:03.369Z,0.20
2022-12-04T04:12:03.398Z,0.20
2022-12-04T04:13:03.339Z,0.18
2022-12-04T04:14:03.344Z,0.14
2022-12-04T04:15:03.333Z,0.15
2022-12-04T04:16:03.411Z,0.15
2022-12-04T04:17:03.311Z,0.14
2022-12-04T04:18:03.314Z,0.12
2022-12-04T04:19:03.287Z,0.14
2022-12-04T04:20:03.292Z,0.12
2022-12-04T04:21:03.261Z,0.09
2022-12-04T04:22:03.263Z,0.12
2022-12-04T04:23:03.259Z,0.14
2022-12-04T04:24:03.239Z,0.12
2022-12-04T04:25:03.227Z,0.14
2022-12-04T04:26:03.229Z,0.14
2022-12-04T04:27:03.246Z,0.12
2022-12-04T04:28:03.243Z,0.12
2022-12-04T04:29:03.191Z,0.11
2022-12-04T04:30:03.176Z,0.12
2022-12-04T04:31:03.187Z,0.12
2022-12-04T04:32:03.165Z,0.15
2022-12-04T04:33:03.188Z,0.14
2022-12-04T04:34:03.135Z,0.15
2022-12-04T04:35:03.130Z,0.18
2022-12-04T04:36:03.148Z,0.17
2022-12-04T04:37:03.112Z,0.17
2022-12-04T04:38:03.103Z,0.17
2022-12-04T04:39:03.100Z,0.17
2022-12-04T04:40:03.105Z,0.17
2022-12-04T04:41:03.056Z,0.14
2022-12-04T04:42:03.067Z,0.15
2022-12-04T04:43:03.057Z,0.12
2022-12-04T04:44:03.050Z,0.12
2022-12-04T04:45:03.027Z,0.14
2022-12-04T04:46:03.045Z,0.12
2022-12-04T04:47:02.997Z,0.12
2022-12-04T04:48:03.007Z,0.12
2022-12-04T04:49:02.995Z,0.09
2022-12-04T04:50:03.029Z,0.12
2022-12-04T04:51:02.962Z,0.09
2022-12-04T04:52:02.978Z,0.12
2022-12-04T04:53:02.950Z,0.12
2022-12-04T04:54:02.957Z,0.11
2022-12-04T04:55:02.926Z,0.11
2022-12-04T04:56:02.922Z,0.09
2022-12-04T04:57:02.927Z,0.09
2022-12-04T04:58:02.904Z,0.11
2022-12-04T04:59:02.882Z,0.12
2022-12-04T05:00:02.902Z,0.15
2022-12-04T05:01:02.866Z,0.18
2022-12-04T05:02:02.919Z,0.20
2022-12-04T05:03:02.931Z,0.23
2022-12-04T05:04:02.857Z,0.22
2022-12-04T05:05:02.824Z,0.22
2022-12-04T05:06:02.841Z,0.22
2022-12-04T05:07:02.799Z,0.23
2022-12-04T05:08:02.831Z,0.25
2022-12-04T05:09:02.811Z,0.23
2022-12-04T05:10:02.798Z,0.20
2022-12-04T05:11:02.767Z,0.18
2022-12-04T05:12:02.767Z,0.18
2022-12-04T05:13:02.737Z,0.20
2022-12-04T05:14:02.789Z,0.22
2022-12-04T05:15:02.723Z,0.20
2022-12-04T05:16:02.889Z,0.18
2022-12-04T05:17:05.509Z,0.18
2022-12-04T05:18:02.703Z,0.17
2022-12-04T05:19:02.677Z,0.20
2022-12-04T05:20:02.688Z,0.17
2022-12-04T05:21:02.679Z,0.18
2022-12-04T05:22:02.661Z,0.17
2022-12-04T05:23:02.636Z,0.12
2022-12-04T05:24:02.639Z,0.14
2022-12-04T05:25:02.625Z,0.12
2022-12-04T05:26:02.670Z,0.14
2022-12-04T05:27:02.593Z,0.17
2022-12-04T05:28:02.603Z,0.14
2022-12-04T05:29:02.581Z,0.14
2022-12-04T05:30:02.591Z,0.12
2022-12-04T05:31:02.648Z,0.12
2022-12-04T05:32:03.454Z,0.11
2022-12-04T05:33:02.566Z,0.11
2022-12-04T05:34:02.532Z,0.09
2022-12-04T05:35:07.661Z,0.11
2022-12-04T05:36:02.532Z,0.11
2022-12-04T05:37:02.515Z,0.08
2022-12-04T05:38:02.504Z,0.09
2022-12-04T05:39:02.500Z,0.09
2022-12-04T05:40:02.481Z,0.08
2022-12-04T05:41:02.468Z,0.08
2022-12-04T05:42:02.473Z,0.09
2022-12-04T05:43:02.455Z,0.08
2022-12-04T05:44:02.425Z,0.08
2022-12-04T05:45:02.494Z,0.05
2022-12-04T05:46:02.445Z,0.05
2022-12-04T05:47:02.487Z,0.04
2022-12-04T05:48:02.387Z,0.02
2022-12-04T05:49:02.392Z,0.02
2022-12-04T05:50:02.373Z,0.00
2022-12-04T05:51:02.367Z,0.02
2022-12-04T05:52:02.383Z,0.07
2022-12-04T05:53:02.349Z,0.07
2022-12-04T05:54:02.338Z,0.11
2022-12-04T05:55:02.357Z,0.11
2022-12-04T05:56:02.336Z,0.12
2022-12-04T05:57:02.344Z,0.17
2022-12-04T05:58:02.312Z,0.17
2022-12-04T05:59:02.294Z,0.18
2022-12-04T06:00:02.271Z,0.18
2022-12-04T06:01:02.313Z,0.20
2022-12-04T06:02:02.345Z,0.20
2022-12-04T06:03:02.334Z,0.15
2022-12-04T06:04:02.233Z,0.14
2022-12-04T06:05:02.228Z,0.14
2022-12-04T06:06:02.210Z,0.12
2022-12-04T06:07:02.236Z,0.11
2022-12-04T06:08:02.289Z,0.09
2022-12-04T06:09:02.188Z,0.09
2022-12-04T06:10:02.172Z,0.12
2022-12-04T06:11:02.184Z,0.11
2022-12-04T06:12:02.163Z,0.09
2022-12-04T06:13:02.166Z,0.08
2022-12-04T06:14:02.136Z,0.11
2022-12-04T06:15:02.135Z,0.09
2022-12-04T06:16:02.197Z,0.11
2022-12-04T06:17:02.102Z,0.12
2022-12-04T06:18:02.121Z,0.11
2022-12-04T06:19:02.117Z,0.11
2022-12-04T06:20:06.522Z,0.09
2022-12-04T06:21:02.182Z,0.09
2022-12-04T06:22:02.047Z,0.08
2022-12-04T06:23:02.060Z,0.08
2022-12-04T06:24:02.112Z,0.09
2022-12-04T06:25:02.042Z,0.09
2022-12-04T06:26:06.757Z,0.09
2022-12-04T06:27:26.793Z,0.09
2022-12-04T06:28:02.016Z,0.11
2022-12-04T06:29:02.020Z,0.12
2022-12-04T06:30:01.973Z,0.09
2022-12-04T06:31:01.997Z,0.11
2022-12-04T06:32:02.073Z,0.09
2022-12-04T06:33:01.942Z,0.11
2022-12-04T06:34:01.955Z,0.12
2022-12-04T06:35:01.950Z,0.11
2022-12-04T06:36:01.916Z,0.12
2022-12-04T06:37:01.954Z,0.11
2022-12-04T06:38:01.892Z,0.11
2022-12-04T06:39:02.011Z,0.12
2022-12-04T06:40:01.867Z,0.12
2022-12-04T06:41:01.871Z,0.12
2022-12-04T06:42:01.881Z,0.11
2022-12-04T06:43:01.871Z,0.12
2022-12-04T06:44:01.829Z,0.11
2022-12-04T06:45:01.843Z,0.12
2022-12-04T06:46:01.874Z,0.14
2022-12-04T06:47:01.823Z,0.17
2022-12-04T06:48:01.823Z,0.17
2022-12-04T06:49:01.794Z,0.14
2022-12-04T06:50:01.798Z,0.12
2022-12-04T06:51:01.774Z,0.12
2022-12-04T06:52:01.757Z,0.11
2022-12-04T06:53:07.925Z,0.12
2022-12-04T06:54:01.760Z,0.14
2022-12-04T06:55:01.756Z,0.14
2022-12-04T06:56:01.715Z,0.15
2022-12-04T06:57:01.657Z,0.17
2022-12-04T06:58:01.692Z,0.17
2022-12-04T06:59:01.717Z,0.17
2022-12-04T07:00:01.694Z,0.17
2022-12-04T07:01:01.713Z,0.17
2022-12-04T07:02:01.757Z,0.20
2022-12-04T07:03:01.603Z,0.15
2022-12-04T07:04:01.633Z,0.17
2022-12-04T07:05:01.639Z,0.18
2022-12-04T07:06:01.555Z,0.15
2022-12-04T07:07:01.554Z,0.17
2022-12-04T07:08:01.568Z,0.20
2022-12-04T07:09:01.971Z,0.20
2022-12-04T07:10:01.518Z,0.23
2022-12-04T07:11:01.521Z,0.27
2022-12-04T07:12:01.490Z,0.27
2022-12-04T07:13:01.498Z,0.27
2022-12-04T07:14:01.489Z,0.27
2022-12-04T07:15:01.516Z,0.26
2022-12-04T07:16:01.540Z,0.25
2022-12-04T07:17:01.572Z,0.22
2022-12-04T07:18:01.442Z,0.23
2022-12-04T07:19:01.442Z,0.22
2022-12-04T07:20:01.437Z,0.20
2022-12-04T07:21:01.426Z,0.18
2022-12-04T07:22:01.396Z,0.17
2022-12-04T07:23:06.885Z,0.18
2022-12-04T07:24:01.393Z,0.17
2022-12-04T07:25:01.373Z,0.18
2022-12-04T07:26:01.398Z,0.20
2022-12-04T07:27:01.372Z,0.18
2022-12-04T07:28:01.338Z,0.18
2022-12-04T07:29:01.341Z,0.18
2022-12-04T07:30:01.330Z,0.18
2022-12-04T07:31:01.307Z,0.20
2022-12-04T07:32:01.370Z,0.20
2022-12-04T07:33:01.424Z,0.23
2022-12-04T07:34:01.292Z,0.25
2022-12-04T07:35:01.301Z,0.23
2022-12-04T07:36:01.245Z,0.23
2022-12-04T07:37:01.254Z,0.25
2022-12-04T07:38:01.247Z,0.23
2022-12-04T07:39:01.241Z,0.27
2022-12-04T07:40:01.260Z,0.30
2022-12-04T07:41:01.212Z,0.30
2022-12-04T07:42:01.207Z,0.30
2022-12-04T07:43:01.203Z,0.35
2022-12-04T07:44:01.194Z,0.35
2022-12-04T07:45:01.199Z,0.35
2022-12-04T07:46:01.192Z,0.35
2022-12-04T07:47:01.158Z,0.33
2022-12-04T07:48:01.162Z,0.35
2022-12-04T07:49:01.123Z,0.33
2022-12-04T07:50:01.119Z,0.32
2022-12-04T07:51:01.137Z,0.35
2022-12-04T07:52:01.100Z,0.33
2022-12-04T07:53:01.086Z,0.35
2022-12-04T07:54:04.087Z,0.36
2022-12-04T07:55:01.077Z,0.40
2022-12-04T07:56:01.073Z,0.47
2022-12-04T07:57:01.062Z,0.44
2022-12-04T07:58:01.041Z,0.51
2022-12-04T07:59:01.035Z,0.47
2022-12-04T08:00:01.107Z,0.50
2022-12-04T08:01:01.060Z,0.51
2022-12-04T08:02:01.129Z,0.50
2022-12-04T08:03:00.985Z,0.47
2022-12-04T08:04:01.085Z,0.51
2022-12-04T08:05:01.089Z,0.50
2022-12-04T08:06:00.980Z,0.47
2022-12-04T08:07:00.974Z,0.45
2022-12-04T08:08:01.027Z,0.45
2022-12-04T08:09:06.108Z,0.45
2022-12-04T08:10:00.944Z,0.45
2022-12-04T08:11:00.975Z,0.45
2022-12-04T08:12:00.951Z,0.45
2022-12-04T08:13:00.891Z,0.45
2022-12-04T08:14:00.900Z,0.45
2022-12-04T08:15:00.883Z,0.45
2022-12-04T08:16:00.886Z,0.45
2022-12-04T08:17:00.905Z,0.45
2022-12-04T08:18:00.845Z,0.41
2022-12-04T08:19:00.865Z,0.41
2022-12-04T08:20:00.816Z,0.41
2022-12-04T08:21:00.854Z,0.41
2022-12-04T08:22:00.798Z,0.44
2022-12-04T08:23:00.803Z,0.45
2022-12-04T08:24:00.789Z,0.47
2022-12-04T08:25:00.774Z,0.47
2022-12-04T08:26:01.877Z,0.47
2022-12-04T08:27:00.789Z,0.44
2022-12-04T08:28:00.738Z,0.41
2022-12-04T08:29:00.737Z,0.45
2022-12-04T08:30:00.748Z,0.47
2022-12-04T08:31:00.938Z,0.48
2022-12-04T08:32:00.715Z,0.45
2022-12-04T08:33:00.686Z,0.47
2022-12-04T08:34:00.707Z,0.47
2022-12-04T08:35:00.683Z,0.47
2022-12-04T08:36:00.670Z,0.48
2022-12-04T08:37:00.671Z,0.51
2022-12-04T08:38:00.669Z,0.48
2022-12-04T08:39:00.667Z,0.48
2022-12-04T08:40:00.676Z,0.51
2022-12-04T08:41:00.605Z,0.53
2022-12-04T08:42:00.681Z,0.55
2022-12-04T08:43:00.601Z,0.55
2022-12-04T08:44:00.571Z,0.56
2022-12-04T08:45:00.581Z,0.60
2022-12-04T08:46:00.607Z,0.63
2022-12-04T08:47:00.552Z,0.66
2022-12-04T08:48:00.536Z,0.69
2022-12-04T08:49:00.551Z,0.70
2022-12-04T08:50:00.514Z,0.72
2022-12-04T08:51:00.520Z,0.73
2022-12-04T08:52:00.498Z,0.72
2022-12-04T08:53:00.515Z,0.73
2022-12-04T08:54:00.474Z,0.73
2022-12-04T08:55:00.490Z,0.72
2022-12-04T08:56:00.482Z,0.70
2022-12-04T08:57:00.455Z,0.70
2022-12-04T08:58:00.454Z,0.70
2022-12-04T08:59:00.447Z,0.70
2022-12-04T09:00:00.418Z,0.70
2022-12-04T09:01:00.473Z,0.69
2022-12-04T09:02:00.535Z,0.67
2022-12-04T09:03:00.403Z,0.69
2022-12-04T09:04:01.182Z,0.67
2022-12-04T09:05:00.376Z,0.67
2022-12-04T09:06:00.353Z,0.67
2022-12-04T09:07:00.350Z,0.67
2022-12-04T09:08:00.415Z,0.72
2022-12-04T09:09:00.344Z,0.72
2022-12-04T09:10:00.862Z,0.72
2022-12-04T09:11:00.323Z,0.73
2022-12-04T09:12:00.322Z,0.73
2022-12-04T09:13:00.329Z,0.74
2022-12-04T09:14:00.305Z,0.73
2022-12-04T09:15:00.273Z,0.76
2022-12-04T09:16:00.323Z,0.76
2022-12-04T09:17:00.254Z,0.74
2022-12-04T09:18:00.289Z,0.74
2022-12-04T09:19:00.275Z,0.76
2022-12-04T09:20:01.472Z,0.76
2022-12-04T09:21:00.226Z,0.76
2022-12-04T09:22:00.204Z,0.74
2022-12-04T09:23:04.771Z,0.73
2022-12-04T09:24:00.197Z,0.74
2022-12-04T09:25:00.203Z,0.72
2022-12-04T09:26:00.170Z,0.73
2022-12-04T09:27:00.170Z,0.72
2022-12-04T09:28:00.144Z,0.74
2022-12-04T09:29:00.148Z,0.76
2022-12-04T09:30:00.134Z,0.74
2022-12-04T09:31:00.152Z,0.78
2022-12-04T09:32:00.094Z,0.78
2022-12-04T09:33:00.091Z,0.80
2022-12-04T09:34:00.109Z,0.81
2022-12-04T09:35:00.087Z,0.82
2022-12-04T09:36:00.078Z,0.87
2022-12-04T09:37:00.054Z,0.88
2022-12-04T09:38:00.027Z,0.88
2022-12-04T09:39:00.043Z,0.91
2022-12-04T09:40:00.018Z,0.92
2022-12-04T09:41:00.029Z,0.96
2022-12-04T09:42:00.035Z,0.92
2022-12-04T09:42:59.995Z,0.96
2022-12-04T09:43:59.978Z,0.98
2022-12-04T09:44:59.971Z,0.98
2022-12-04T09:46:00.042Z,0.96
2022-12-04T09:47:00.074Z,0.98
2022-12-04T09:47:59.935Z,0.96
2022-12-04T09:48:59.948Z,0.96
2022-12-04T09:49:59.930Z,0.94
2022-12-04T09:50:59.921Z,0.92
2022-12-04T09:51:59.922Z,0.92
2022-12-04T09:52:59.903Z,0.92
2022-12-04T09:53:59.880Z,0.92
2022-12-04T09:54:59.912Z,0.92
2022-12-04T09:55:59.850Z,0.91
2022-12-04T09:56:59.891Z,0.90
2022-12-04T09:58:02.014Z,0.88
2022-12-04T09:58:59.833Z,0.84
2022-12-04T09:59:59.841Z,0.84
2022-12-04T10:00:59.800Z,0.85
2022-12-04T10:01:59.816Z,0.85
2022-12-04T10:02:59.936Z,0.87
2022-12-04T10:04:05.671Z,0.88
2022-12-04T10:04:59.775Z,0.90
2022-12-04T10:05:59.779Z,0.90
2022-12-04T10:06:59.745Z,0.92
2022-12-04T10:07:59.824Z,0.92
2022-12-04T10:08:59.753Z,0.94
2022-12-04T10:09:59.734Z,0.92
2022-12-04T10:10:59.703Z,0.91
2022-12-04T10:11:59.740Z,0.94
2022-12-04T10:12:59.687Z,0.94
2022-12-04T10:13:59.694Z,0.94
2022-12-04T10:14:59.666Z,0.98
2022-12-04T10:15:59.689Z,0.98
2022-12-04T10:16:59.675Z,1.00
2022-12-04T10:17:59.663Z,1.00
2022-12-04T10:18:59.625Z,1.03
2022-12-04T10:19:59.618Z,1.06
2022-12-04T10:20:59.609Z,1.12
2022-12-04T10:21:59.602Z,1.16
2022-12-04T10:22:59.600Z,1.18
2022-12-04T10:23:59.590Z,1.18
2022-12-04T10:24:59.590Z,1.17
2022-12-04T10:25:59.558Z,1.20
2022-12-04T10:26:59.639Z,1.18
2022-12-04T10:27:59.542Z,1.23
2022-12-04T10:28:59.551Z,1.23
2022-12-04T10:29:59.692Z,1.26
2022-12-04T10:30:59.527Z,1.26
2022-12-04T10:31:59.500Z,1.23
2022-12-04T10:32:59.506Z,1.21
2022-12-04T10:33:59.800Z,1.21
2022-12-04T10:34:59.704Z,1.23
2022-12-04T10:35:59.467Z,1.24
2022-12-04T10:36:59.470Z,1.28
2022-12-04T10:37:59.450Z,1.24
2022-12-04T10:38:59.449Z,1.26
2022-12-04T10:39:59.520Z,1.26
2022-12-04T10:40:59.435Z,1.26
2022-12-04T10:41:59.460Z,1.27
2022-12-04T10:42:59.394Z,1.26
2022-12-04T10:43:59.404Z,1.26
2022-12-04T10:44:59.382Z,1.27
2022-12-04T10:45:59.379Z,1.28
2022-12-04T10:46:59.469Z,1.28
2022-12-04T10:47:59.335Z,1.30
2022-12-04T10:48:59.348Z,1.34
2022-12-04T10:49:59.347Z,1.36
2022-12-04T10:50:59.342Z,1.34
2022-12-04T10:51:59.355Z,1.34
2022-12-04T10:52:59.353Z,1.31
2022-12-04T10:53:59.323Z,1.31
2022-12-04T10:54:59.282Z,1.30
2022-12-04T10:55:59.338Z,1.28
2022-12-04T10:56:59.319Z,1.28
2022-12-04T10:57:59.252Z,1.30
2022-12-04T10:58:59.237Z,1.31
2022-12-04T10:59:59.609Z,1.39
2022-12-04T11:00:59.195Z,1.35
2022-12-04T11:02:03.086Z,1.35
2022-12-04T11:02:59.287Z,1.36
2022-12-04T11:03:59.182Z,1.36
2022-12-04T11:04:59.172Z,1.38
2022-12-04T11:05:59.154Z,1.38
2022-12-04T11:06:59.156Z,1.39
2022-12-04T11:07:59.212Z,1.41
2022-12-04T11:08:59.116Z,1.41
2022-12-04T11:09:59.264Z,1.45
2022-12-04T11:10:59.105Z,1.46
2022-12-04T11:11:59.109Z,1.48
2022-12-04T11:12:59.072Z,1.46
2022-12-04T11:13:59.086Z,1.49
2022-12-04T11:14:59.048Z,1.49
2022-12-04T11:15:59.090Z,1.52
2022-12-04T11:16:59.034Z,1.48
2022-12-04T11:17:59.028Z,1.53
2022-12-04T11:18:59.021Z,1.53
2022-12-04T11:19:59.006Z,1.49
2022-12-04T11:20:58.987Z,1.52
2022-12-04T11:21:58.988Z,1.49
2022-12-04T11:22:58.986Z,1.49
2022-12-04T11:23:58.980Z,1.49
2022-12-04T11:24:58.948Z,1.46
2022-12-04T11:26:05.257Z,1.48
2022-12-04T11:26:58.930Z,1.48
2022-12-04T11:27:58.992Z,1.45
2022-12-04T11:28:58.917Z,1.48
2022-12-04T11:29:59.117Z,1.53
2022-12-04T11:30:58.953Z,1.55
2022-12-04T11:32:05.612Z,1.55
2022-12-04T11:32:59.036Z,1.53
2022-12-04T11:33:58.882Z,1.52
2022-12-04T11:34:58.908Z,1.49
2022-12-04T11:35:58.862Z,1.52
2022-12-04T11:36:58.847Z,1.55
2022-12-04T11:37:58.886Z,1.56
2022-12-04T11:38:58.802Z,1.60
2022-12-04T11:39:59.159Z,1.63
2022-12-04T11:40:58.792Z,1.63
2022-12-04T11:41:58.774Z,1.64
2022-12-04T11:42:58.783Z,1.63
2022-12-04T11:44:00.583Z,1.62
2022-12-04T11:44:58.762Z,1.60
2022-12-04T11:45:58.741Z,1.64
2022-12-04T11:46:58.820Z,1.60
2022-12-04T11:47:58.726Z,1.59
2022-12-04T11:48:58.713Z,1.62
2022-12-04T11:49:59.007Z,1.59
2022-12-04T11:50:58.674Z,1.62
2022-12-04T11:51:58.678Z,1.56
2022-12-04T11:52:58.668Z,1.55
2022-12-04T11:53:58.665Z,1.53
2022-12-04T11:54:58.653Z,1.55
2022-12-04T11:55:58.646Z,1.55
2022-12-04T11:56:58.629Z,1.53
2022-12-04T11:57:58.635Z,1.52
2022-12-04T11:58:58.638Z,1.53
2022-12-04T11:59:59.008Z,1.55
2022-12-04T12:00:58.582Z,1.55
2022-12-04T12:01:59.015Z,1.53
2022-12-04T12:02:58.715Z,1.56
2022-12-04T12:03:58.625Z,1.59
2022-12-04T12:04:58.540Z,1.63
2022-12-04T12:05:58.538Z,1.62
2022-12-04T12:06:58.549Z,1.64
2022-12-04T12:08:02.535Z,1.63
2022-12-04T12:08:58.550Z,1.67
2022-12-04T12:09:58.821Z,1.66
2022-12-04T12:10:58.491Z,1.63
2022-12-04T12:11:58.483Z,1.62
2022-12-04T12:12:58.505Z,1.59
2022-12-04T12:13:58.472Z,1.59
2022-12-04T12:14:58.722Z,1.57
2022-12-04T12:15:58.645Z,1.57
2022-12-04T12:16:58.437Z,1.56
2022-12-04T12:17:58.426Z,1.56
2022-12-04T12:18:58.415Z,1.55
2022-12-04T12:19:58.663Z,1.55
2022-12-04T12:20:58.389Z,1.52
2022-12-04T12:22:03.443Z,1.53
2022-12-04T12:22:58.485Z,1.55
2022-12-04T12:23:58.375Z,1.55
2022-12-04T12:24:58.716Z,1.53
2022-12-04T12:25:58.335Z,1.52
2022-12-04T12:26:58.360Z,1.53
2022-12-04T12:27:58.321Z,1.52
2022-12-04T12:28:58.449Z,1.49
2022-12-04T12:29:58.651Z,1.53
2022-12-04T12:31:04.083Z,1.52
2022-12-04T12:31:58.361Z,1.56
2022-12-04T12:32:58.308Z,1.59
2022-12-04T12:33:58.266Z,1.62
2022-12-04T12:34:58.827Z,1.62
2022-12-04T12:35:58.340Z,1.66
2022-12-04T12:37:01.024Z,1.66
2022-12-04T12:37:58.206Z,1.67
2022-12-04T12:38:58.236Z,1.69
2022-12-04T12:39:58.693Z,1.71
2022-12-04T12:40:58.216Z,1.74
2022-12-04T12:41:58.193Z,1.74
2022-12-04T12:42:58.893Z,1.75
2022-12-04T12:43:58.158Z,1.73
2022-12-04T12:44:58.149Z,1.69
2022-12-04T12:45:58.186Z,1.71
2022-12-04T12:46:58.098Z,1.71
2022-12-04T12:47:58.183Z,1.71
2022-12-04T12:48:58.759Z,1.67
2022-12-04T12:49:58.388Z,1.67
2022-12-04T12:51:22.101Z,1.71
2022-12-04T12:51:58.326Z,1.67
2022-12-04T12:52:58.061Z,1.67
2022-12-04T12:53:58.072Z,1.64
2022-12-04T12:54:58.038Z,1.64
2022-12-04T12:55:58.059Z,1.64
2022-12-04T12:56:58.102Z,1.64
2022-12-04T12:57:58.080Z,1.63
2022-12-04T12:58:57.993Z,1.63
2022-12-04T12:59:58.296Z,1.64
2022-12-04T13:00:58.088Z,1.64
2022-12-04T13:02:00.866Z,1.63
2022-12-04T13:02:58.052Z,1.62
2022-12-04T13:03:57.971Z,1.64
2022-12-04T13:04:58.057Z,1.64
2022-12-04T13:05:57.958Z,1.66
2022-12-04T13:06:57.928Z,1.64
2022-12-04T13:07:57.987Z,1.67
2022-12-04T13:08:57.884Z,1.67
2022-12-04T13:09:58.286Z,1.67
2022-12-04T13:10:57.876Z,1.67
2022-12-04T13:11:57.870Z,1.69
2022-12-04T13:12:57.879Z,1.71